sensor_id;sensor_type;location;lat;lon;timestamp;P1;durP1;ratioP1;P2;durP2;ratioP2
79526;SDS011;68974;47.754;-3.364;2023-09-30T00:02:25;9.73;;;3.38;;
79526;SDS011;68974;47.754;-3.364;2023-09-30T00:04:51;9.98;;;2.67;;
79526;SDS011;68974;47.754;-3.364;2023-09-30T00:07:17;13.95;;;3.17;;
79526;SDS011;68974;47.754;-3.364;2023-09-30T00:09:42;11.02;;;3.70;;
79526;SDS011;68974;47.754;-3.364;2023-09-30T00:12:08;14.13;;;3.72;;
79526;SDS011;68974;47.754;-3.364;2023-09-30T00:14:34;10.65;;;2.88;;
79526;SDS011;68974;47.754;-3.364;2023-09-30T00:16:59;7.35;;;3.40;;
79526;SDS011;68974;47.754;-3.364;2023-09-30T00:19:25;10.90;;;3.17;;
79526;SDS011;68974;47.754;-3.364;2023-09-30T00:21:51;10.48;;;2.95;;
79526;SDS011;68974;47.754;-3.364;2023-09-30T00:24:16;10.40;;;2.97;;
79526;SDS011;68974;47.754;-3.364;2023-09-30T00:26:42;10.40;;;2.80;;
79526;SDS011;68974;47.754;-3.364;2023-09-30T00:29:07;9.70;;;2.50;;
79526;SDS011;68974;47.754;-3.364;2023-09-30T00:31:32;9.13;;;3.00;;
79526;SDS011;68974;47.754;-3.364;2023-09-30T00:33:58;8.70;;;2.80;;
79526;SDS011;68974;47.754;-3.364;2023-09-30T00:36:24;9.93;;;3.35;;
79526;SDS011;68974;47.754;-3.364;2023-09-30T00:38:49;10.32;;;3.58;;
79526;SDS011;68974;47.754;-3.364;2023-09-30T00:41:15;14.13;;;2.97;;
79526;SDS011;68974;47.754;-3.364;2023-09-30T00:43:40;9.98;;;3.05;;
79526;SDS011;68974;47.754;-3.364;2023-09-30T00:48:50;10.18;;;3.08;;
79526;SDS011;68974;47.754;-3.364;2023-09-30T00:51:16;14.15;;;3.22;;
79526;SDS011;68974;47.754;-3.364;2023-09-30T00:53:42;11.45;;;3.60;;
79526;SDS011;68974;47.754;-3.364;2023-09-30T00:56:08;12.52;;;4.15;;
79526;SDS011;68974;47.754;-3.364;2023-09-30T00:58:35;9.38;;;3.40;;
79526;SDS011;68974;47.754;-3.364;2023-09-30T01:01:03;13.32;;;4.18;;
79526;SDS011;68974;47.754;-3.364;2023-09-30T01:03:29;12.30;;;4.25;;
79526;SDS011;68974;47.754;-3.364;2023-09-30T01:05:54;13.65;;;5.05;;
79526;SDS011;68974;47.754;-3.364;2023-09-30T01:08:20;11.73;;;3.80;;
79526;SDS011;68974;47.754;-3.364;2023-09-30T01:10:46;15.25;;;5.10;;
79526;SDS011;68974;47.754;-3.364;2023-09-30T01:13:12;15.38;;;4.30;;
79526;SDS011;68974;47.754;-3.364;2023-09-30T01:15:38;15.82;;;4.35;;
79526;SDS011;68974;47.754;-3.364;2023-09-30T01:18:03;15.60;;;4.15;;
79526;SDS011;68974;47.754;-3.364;2023-09-30T01:20:29;11.85;;;4.05;;
79526;SDS011;68974;47.754;-3.364;2023-09-30T01:22:56;15.13;;;4.43;;
79526;SDS011;68974;47.754;-3.364;2023-09-30T01:25:22;13.27;;;4.72;;
79526;SDS011;68974;47.754;-3.364;2023-09-30T01:27:48;11.02;;;3.90;;
79526;SDS011;68974;47.754;-3.364;2023-09-30T01:30:16;17.98;;;4.65;;
79526;SDS011;68974;47.754;-3.364;2023-09-30T01:32:43;7.45;;;3.40;;
79526;SDS011;68974;47.754;-3.364;2023-09-30T01:35:08;17.35;;;4.05;;
79526;SDS011;68974;47.754;-3.364;2023-09-30T01:37:34;13.45;;;4.45;;
79526;SDS011;68974;47.754;-3.364;2023-09-30T01:40:00;8.95;;;3.67;;
79526;SDS011;68974;47.754;-3.364;2023-09-30T01:42:25;10.63;;;4.28;;
79526;SDS011;68974;47.754;-3.364;2023-09-30T01:44:51;12.85;;;3.88;;
79526;SDS011;68974;47.754;-3.364;2023-09-30T01:47:16;10.85;;;4.43;;
79526;SDS011;68974;47.754;-3.364;2023-09-30T01:49:42;10.75;;;4.47;;
79526;SDS011;68974;47.754;-3.364;2023-09-30T01:52:07;11.30;;;4.45;;
79526;SDS011;68974;47.754;-3.364;2023-09-30T01:54:33;16.25;;;3.72;;
79526;SDS011;68974;47.754;-3.364;2023-09-30T01:56:58;13.77;;;3.90;;
79526;SDS011;68974;47.754;-3.364;2023-09-30T01:59:24;11.73;;;3.25;;
79526;SDS011;68974;47.754;-3.364;2023-09-30T02:01:49;14.07;;;3.75;;
79526;SDS011;68974;47.754;-3.364;2023-09-30T02:04:16;16.10;;;4.32;;
79526;SDS011;68974;47.754;-3.364;2023-09-30T02:06:42;10.32;;;3.80;;
79526;SDS011;68974;47.754;-3.364;2023-09-30T02:09:08;12.40;;;3.60;;
79526;SDS011;68974;47.754;-3.364;2023-09-30T02:11:34;11.82;;;3.65;;
79526;SDS011;68974;47.754;-3.364;2023-09-30T02:14:01;12.32;;;3.67;;
79526;SDS011;68974;47.754;-3.364;2023-09-30T02:16:27;14.20;;;3.00;;
79526;SDS011;68974;47.754;-3.364;2023-09-30T02:18:52;9.32;;;3.10;;
79526;SDS011;68974;47.754;-3.364;2023-09-30T02:21:18;13.20;;;3.45;;
79526;SDS011;68974;47.754;-3.364;2023-09-30T02:23:44;7.32;;;2.80;;
79526;SDS011;68974;47.754;-3.364;2023-09-30T02:26:13;10.52;;;2.95;;
79526;SDS011;68974;47.754;-3.364;2023-09-30T02:28:39;8.65;;;2.90;;
79526;SDS011;68974;47.754;-3.364;2023-09-30T02:31:05;15.77;;;3.00;;
79526;SDS011;68974;47.754;-3.364;2023-09-30T02:35:57;8.32;;;2.95;;
79526;SDS011;68974;47.754;-3.364;2023-09-30T02:38:23;16.25;;;3.33;;
79526;SDS011;68974;47.754;-3.364;2023-09-30T02:40:50;8.27;;;2.75;;
79526;SDS011;68974;47.754;-3.364;2023-09-30T02:43:16;7.57;;;2.60;;
79526;SDS011;68974;47.754;-3.364;2023-09-30T02:45:41;8.63;;;2.47;;
79526;SDS011;68974;47.754;-3.364;2023-09-30T02:48:08;9.85;;;2.55;;
79526;SDS011;68974;47.754;-3.364;2023-09-30T02:50:34;11.55;;;2.63;;
79526;SDS011;68974;47.754;-3.364;2023-09-30T02:52:59;13.00;;;2.67;;
79526;SDS011;68974;47.754;-3.364;2023-09-30T02:55:25;12.70;;;2.75;;
79526;SDS011;68974;47.754;-3.364;2023-09-30T02:57:50;10.55;;;2.72;;
79526;SDS011;68974;47.754;-3.364;2023-09-30T03:00:16;8.98;;;2.58;;
79526;SDS011;68974;47.754;-3.364;2023-09-30T03:02:48;8.35;;;2.55;;
79526;SDS011;68974;47.754;-3.364;2023-09-30T03:05:14;10.02;;;3.35;;
79526;SDS011;68974;47.754;-3.364;2023-09-30T03:07:40;11.15;;;2.55;;
79526;SDS011;68974;47.754;-3.364;2023-09-30T03:10:06;9.85;;;2.50;;
79526;SDS011;68974;47.754;-3.364;2023-09-30T03:12:34;11.90;;;2.40;;
79526;SDS011;68974;47.754;-3.364;2023-09-30T03:14:59;10.25;;;2.25;;
79526;SDS011;68974;47.754;-3.364;2023-09-30T03:17:29;8.55;;;2.30;;
79526;SDS011;68974;47.754;-3.364;2023-09-30T03:19:55;6.65;;;2.53;;
79526;SDS011;68974;47.754;-3.364;2023-09-30T03:22:22;5.90;;;1.67;;
79526;SDS011;68974;47.754;-3.364;2023-09-30T03:24:48;10.98;;;2.40;;
79526;SDS011;68974;47.754;-3.364;2023-09-30T03:27:13;12.70;;;3.17;;
79526;SDS011;68974;47.754;-3.364;2023-09-30T03:29:40;14.60;;;3.40;;
79526;SDS011;68974;47.754;-3.364;2023-09-30T03:32:06;11.00;;;2.50;;
79526;SDS011;68974;47.754;-3.364;2023-09-30T03:34:32;9.25;;;2.10;;
79526;SDS011;68974;47.754;-3.364;2023-09-30T03:37:02;6.20;;;2.42;;
79526;SDS011;68974;47.754;-3.364;2023-09-30T03:39:27;9.60;;;2.60;;
79526;SDS011;68974;47.754;-3.364;2023-09-30T03:41:54;8.32;;;2.35;;
79526;SDS011;68974;47.754;-3.364;2023-09-30T03:44:21;7.43;;;2.03;;
79526;SDS011;68974;47.754;-3.364;2023-09-30T03:46:48;13.80;;;2.35;;
79526;SDS011;68974;47.754;-3.364;2023-09-30T03:49:13;7.82;;;2.22;;
79526;SDS011;68974;47.754;-3.364;2023-09-30T03:51:38;8.70;;;2.25;;
79526;SDS011;68974;47.754;-3.364;2023-09-30T03:54:04;10.77;;;2.65;;
79526;SDS011;68974;47.754;-3.364;2023-09-30T03:56:31;10.05;;;2.25;;
79526;SDS011;68974;47.754;-3.364;2023-09-30T03:58:57;8.70;;;2.65;;
79526;SDS011;68974;47.754;-3.364;2023-09-30T04:01:23;7.15;;;2.60;;
79526;SDS011;68974;47.754;-3.364;2023-09-30T04:03:50;7.10;;;2.33;;
79526;SDS011;68974;47.754;-3.364;2023-09-30T04:06:19;15.43;;;3.47;;
79526;SDS011;68974;47.754;-3.364;2023-09-30T04:08:44;5.40;;;2.03;;
79526;SDS011;68974;47.754;-3.364;2023-09-30T04:11:10;9.25;;;2.60;;
79526;SDS011;68974;47.754;-3.364;2023-09-30T04:13:41;12.07;;;2.85;;
79526;SDS011;68974;47.754;-3.364;2023-09-30T04:16:07;11.30;;;3.53;;
79526;SDS011;68974;47.754;-3.364;2023-09-30T04:18:32;13.43;;;2.17;;
79526;SDS011;68974;47.754;-3.364;2023-09-30T04:20:58;8.98;;;2.60;;
79526;SDS011;68974;47.754;-3.364;2023-09-30T04:23:23;7.97;;;2.58;;
79526;SDS011;68974;47.754;-3.364;2023-09-30T04:25:50;10.30;;;2.55;;
79526;SDS011;68974;47.754;-3.364;2023-09-30T04:28:15;9.48;;;2.58;;
79526;SDS011;68974;47.754;-3.364;2023-09-30T04:30:45;9.75;;;2.85;;
79526;SDS011;68974;47.754;-3.364;2023-09-30T04:33:10;11.27;;;2.70;;
79526;SDS011;68974;47.754;-3.364;2023-09-30T04:35:37;8.70;;;2.60;;
79526;SDS011;68974;47.754;-3.364;2023-09-30T04:38:02;9.38;;;2.90;;
79526;SDS011;68974;47.754;-3.364;2023-09-30T04:40:29;10.38;;;2.92;;
79526;SDS011;68974;47.754;-3.364;2023-09-30T04:42:55;10.15;;;2.85;;
79526;SDS011;68974;47.754;-3.364;2023-09-30T04:45:23;6.47;;;2.35;;
79526;SDS011;68974;47.754;-3.364;2023-09-30T04:47:51;11.70;;;3.88;;
79526;SDS011;68974;47.754;-3.364;2023-09-30T04:50:21;13.40;;;4.05;;
79526;SDS011;68974;47.754;-3.364;2023-09-30T04:52:47;12.10;;;2.97;;
79526;SDS011;68974;47.754;-3.364;2023-09-30T04:55:13;7.93;;;3.13;;
79526;SDS011;68974;47.754;-3.364;2023-09-30T04:57:41;11.18;;;3.33;;
79526;SDS011;68974;47.754;-3.364;2023-09-30T05:00:09;8.38;;;3.20;;
79526;SDS011;68974;47.754;-3.364;2023-09-30T05:05:02;9.40;;;3.00;;
79526;SDS011;68974;47.754;-3.364;2023-09-30T05:07:30;7.20;;;3.28;;
79526;SDS011;68974;47.754;-3.364;2023-09-30T05:09:56;7.13;;;2.63;;
79526;SDS011;68974;47.754;-3.364;2023-09-30T05:12:21;8.80;;;3.05;;
79526;SDS011;68974;47.754;-3.364;2023-09-30T05:14:46;10.88;;;2.47;;
79526;SDS011;68974;47.754;-3.364;2023-09-30T05:17:13;7.15;;;2.28;;
79526;SDS011;68974;47.754;-3.364;2023-09-30T05:19:38;8.60;;;4.18;;
79526;SDS011;68974;47.754;-3.364;2023-09-30T05:22:04;7.85;;;2.15;;
79526;SDS011;68974;47.754;-3.364;2023-09-30T05:24:30;12.65;;;2.17;;
79526;SDS011;68974;47.754;-3.364;2023-09-30T05:26:56;7.28;;;2.33;;
79526;SDS011;68974;47.754;-3.364;2023-09-30T05:29:24;10.38;;;2.50;;
79526;SDS011;68974;47.754;-3.364;2023-09-30T05:31:49;8.97;;;2.23;;
79526;SDS011;68974;47.754;-3.364;2023-09-30T05:34:15;12.18;;;2.95;;
79526;SDS011;68974;47.754;-3.364;2023-09-30T05:36:40;6.85;;;2.10;;
79526;SDS011;68974;47.754;-3.364;2023-09-30T05:39:07;8.50;;;2.97;;
79526;SDS011;68974;47.754;-3.364;2023-09-30T05:41:35;10.00;;;2.60;;
79526;SDS011;68974;47.754;-3.364;2023-09-30T05:44:02;9.20;;;2.13;;
79526;SDS011;68974;47.754;-3.364;2023-09-30T05:46:28;10.90;;;2.05;;
79526;SDS011;68974;47.754;-3.364;2023-09-30T05:48:55;6.63;;;2.15;;
79526;SDS011;68974;47.754;-3.364;2023-09-30T05:51:21;11.13;;;2.28;;
79526;SDS011;68974;47.754;-3.364;2023-09-30T05:53:46;11.63;;;3.47;;
79526;SDS011;68974;47.754;-3.364;2023-09-30T05:56:13;13.18;;;3.05;;
79526;SDS011;68974;47.754;-3.364;2023-09-30T05:58:40;7.22;;;2.13;;
79526;SDS011;68974;47.754;-3.364;2023-09-30T06:01:09;6.68;;;2.38;;
79526;SDS011;68974;47.754;-3.364;2023-09-30T06:03:43;7.28;;;2.20;;
79526;SDS011;68974;47.754;-3.364;2023-09-30T06:06:14;8.77;;;2.85;;
79526;SDS011;68974;47.754;-3.364;2023-09-30T06:08:43;10.18;;;2.20;;
79526;SDS011;68974;47.754;-3.364;2023-09-30T06:11:19;7.80;;;3.00;;
79526;SDS011;68974;47.754;-3.364;2023-09-30T06:13:50;8.38;;;2.65;;
79526;SDS011;68974;47.754;-3.364;2023-09-30T06:16:16;11.27;;;2.30;;
79526;SDS011;68974;47.754;-3.364;2023-09-30T06:18:42;7.93;;;2.45;;
79526;SDS011;68974;47.754;-3.364;2023-09-30T06:23:35;9.20;;;2.03;;
79526;SDS011;68974;47.754;-3.364;2023-09-30T06:26:00;8.68;;;2.08;;
79526;SDS011;68974;47.754;-3.364;2023-09-30T06:28:27;8.20;;;2.17;;
79526;SDS011;68974;47.754;-3.364;2023-09-30T06:30:56;8.10;;;2.53;;
79526;SDS011;68974;47.754;-3.364;2023-09-30T06:33:22;6.25;;;2.67;;
79526;SDS011;68974;47.754;-3.364;2023-09-30T06:35:48;8.70;;;2.13;;
79526;SDS011;68974;47.754;-3.364;2023-09-30T06:38:19;10.40;;;2.90;;
79526;SDS011;68974;47.754;-3.364;2023-09-30T06:40:45;8.07;;;2.67;;
79526;SDS011;68974;47.754;-3.364;2023-09-30T06:43:14;8.93;;;2.53;;
79526;SDS011;68974;47.754;-3.364;2023-09-30T06:45:43;11.90;;;2.45;;
79526;SDS011;68974;47.754;-3.364;2023-09-30T06:48:09;8.65;;;2.42;;
79526;SDS011;68974;47.754;-3.364;2023-09-30T06:50:39;12.55;;;2.40;;
79526;SDS011;68974;47.754;-3.364;2023-09-30T06:53:13;6.63;;;1.83;;
79526;SDS011;68974;47.754;-3.364;2023-09-30T06:55:42;8.52;;;2.65;;
79526;SDS011;68974;47.754;-3.364;2023-09-30T06:58:08;5.25;;;1.90;;
79526;SDS011;68974;47.754;-3.364;2023-09-30T07:00:35;11.05;;;3.15;;
79526;SDS011;68974;47.754;-3.364;2023-09-30T07:03:01;11.38;;;2.75;;
79526;SDS011;68974;47.754;-3.364;2023-09-30T07:05:27;7.65;;;2.15;;
79526;SDS011;68974;47.754;-3.364;2023-09-30T07:07:56;8.18;;;2.75;;
79526;SDS011;68974;47.754;-3.364;2023-09-30T07:10:21;11.00;;;3.17;;
79526;SDS011;68974;47.754;-3.364;2023-09-30T07:12:47;6.70;;;2.20;;
79526;SDS011;68974;47.754;-3.364;2023-09-30T07:15:12;9.00;;;2.78;;
79526;SDS011;68974;47.754;-3.364;2023-09-30T07:17:39;12.18;;;2.75;;
79526;SDS011;68974;47.754;-3.364;2023-09-30T07:20:05;11.07;;;2.50;;
79526;SDS011;68974;47.754;-3.364;2023-09-30T07:22:31;7.75;;;2.40;;
79526;SDS011;68974;47.754;-3.364;2023-09-30T07:24:57;12.50;;;2.22;;
79526;SDS011;68974;47.754;-3.364;2023-09-30T07:27:23;7.22;;;2.33;;
79526;SDS011;68974;47.754;-3.364;2023-09-30T07:29:48;11.65;;;2.72;;
79526;SDS011;68974;47.754;-3.364;2023-09-30T07:32:14;13.43;;;3.00;;
79526;SDS011;68974;47.754;-3.364;2023-09-30T07:34:40;9.65;;;2.20;;
79526;SDS011;68974;47.754;-3.364;2023-09-30T07:37:05;8.20;;;2.42;;
79526;SDS011;68974;47.754;-3.364;2023-09-30T07:39:30;6.28;;;2.25;;
79526;SDS011;68974;47.754;-3.364;2023-09-30T07:41:56;8.38;;;2.67;;
79526;SDS011;68974;47.754;-3.364;2023-09-30T07:44:22;11.40;;;3.15;;
79526;SDS011;68974;47.754;-3.364;2023-09-30T07:46:47;16.63;;;3.20;;
79526;SDS011;68974;47.754;-3.364;2023-09-30T07:49:12;8.18;;;2.42;;
79526;SDS011;68974;47.754;-3.364;2023-09-30T07:51:38;7.95;;;2.45;;
79526;SDS011;68974;47.754;-3.364;2023-09-30T07:54:06;12.93;;;2.83;;
79526;SDS011;68974;47.754;-3.364;2023-09-30T07:56:31;10.38;;;2.92;;
79526;SDS011;68974;47.754;-3.364;2023-09-30T07:58:57;11.85;;;2.40;;
79526;SDS011;68974;47.754;-3.364;2023-09-30T08:01:22;12.98;;;2.80;;
79526;SDS011;68974;47.754;-3.364;2023-09-30T08:03:48;13.57;;;2.38;;
79526;SDS011;68974;47.754;-3.364;2023-09-30T08:06:14;7.55;;;3.28;;
79526;SDS011;68974;47.754;-3.364;2023-09-30T08:08:39;8.63;;;2.25;;
79526;SDS011;68974;47.754;-3.364;2023-09-30T08:11:05;9.32;;;2.97;;
79526;SDS011;68974;47.754;-3.364;2023-09-30T08:13:34;16.23;;;3.05;;
79526;SDS011;68974;47.754;-3.364;2023-09-30T08:15:59;8.57;;;2.60;;
79526;SDS011;68974;47.754;-3.364;2023-09-30T08:18:25;11.57;;;3.17;;
79526;SDS011;68974;47.754;-3.364;2023-09-30T08:20:50;10.15;;;2.33;;
79526;SDS011;68974;47.754;-3.364;2023-09-30T08:23:16;12.15;;;2.63;;
79526;SDS011;68974;47.754;-3.364;2023-09-30T08:25:41;9.13;;;2.33;;
79526;SDS011;68974;47.754;-3.364;2023-09-30T08:31:29;12.55;;;2.80;;
79526;SDS011;68974;47.754;-3.364;2023-09-30T08:33:54;9.75;;;3.38;;
79526;SDS011;68974;47.754;-3.364;2023-09-30T08:36:20;8.27;;;2.60;;
79526;SDS011;68974;47.754;-3.364;2023-09-30T08:38:46;8.32;;;3.13;;
79526;SDS011;68974;47.754;-3.364;2023-09-30T08:41:11;8.70;;;2.95;;
79526;SDS011;68974;47.754;-3.364;2023-09-30T08:43:55;10.48;;;3.60;;
79526;SDS011;68974;47.754;-3.364;2023-09-30T08:46:22;7.78;;;3.47;;
79526;SDS011;68974;47.754;-3.364;2023-09-30T08:48:49;11.05;;;3.67;;
79526;SDS011;68974;47.754;-3.364;2023-09-30T08:51:15;9.50;;;3.42;;
79526;SDS011;68974;47.754;-3.364;2023-09-30T08:53:40;8.60;;;3.45;;
79526;SDS011;68974;47.754;-3.364;2023-09-30T09:01:17;8.23;;;3.40;;
79526;SDS011;68974;47.754;-3.364;2023-09-30T09:03:43;8.93;;;3.72;;
79526;SDS011;68974;47.754;-3.364;2023-09-30T09:06:08;7.38;;;3.28;;
79526;SDS011;68974;47.754;-3.364;2023-09-30T09:08:34;11.57;;;3.88;;
79526;SDS011;68974;47.754;-3.364;2023-09-30T09:10:59;12.23;;;3.83;;
79526;SDS011;68974;47.754;-3.364;2023-09-30T09:13:28;8.95;;;3.78;;
79526;SDS011;68974;47.754;-3.364;2023-09-30T09:16:09;12.32;;;3.67;;
79526;SDS011;68974;47.754;-3.364;2023-09-30T09:18:35;10.45;;;4.25;;
79526;SDS011;68974;47.754;-3.364;2023-09-30T09:21:07;10.68;;;3.90;;
79526;SDS011;68974;47.754;-3.364;2023-09-30T09:23:38;11.77;;;3.97;;
79526;SDS011;68974;47.754;-3.364;2023-09-30T09:26:05;10.13;;;3.75;;
79526;SDS011;68974;47.754;-3.364;2023-09-30T09:28:34;10.95;;;4.70;;
79526;SDS011;68974;47.754;-3.364;2023-09-30T09:31:28;11.73;;;4.78;;
79526;SDS011;68974;47.754;-3.364;2023-09-30T09:33:54;12.07;;;4.45;;
79526;SDS011;68974;47.754;-3.364;2023-09-30T09:36:19;12.70;;;4.85;;
79526;SDS011;68974;47.754;-3.364;2023-09-30T09:38:46;13.43;;;4.60;;
79526;SDS011;68974;47.754;-3.364;2023-09-30T09:41:13;10.77;;;4.35;;
79526;SDS011;68974;47.754;-3.364;2023-09-30T09:46:08;15.18;;;4.78;;
79526;SDS011;68974;47.754;-3.364;2023-09-30T09:48:38;15.50;;;5.18;;
79526;SDS011;68974;47.754;-3.364;2023-09-30T09:51:04;11.10;;;4.63;;
79526;SDS011;68974;47.754;-3.364;2023-09-30T09:53:35;13.32;;;4.93;;
79526;SDS011;68974;47.754;-3.364;2023-09-30T09:56:02;12.48;;;4.78;;
79526;SDS011;68974;47.754;-3.364;2023-09-30T09:58:31;14.88;;;5.38;;
79526;SDS011;68974;47.754;-3.364;2023-09-30T10:00:59;11.57;;;5.07;;
79526;SDS011;68974;47.754;-3.364;2023-09-30T10:03:26;16.13;;;5.10;;
79526;SDS011;68974;47.754;-3.364;2023-09-30T10:05:51;11.25;;;5.13;;
79526;SDS011;68974;47.754;-3.364;2023-09-30T10:08:17;17.73;;;5.45;;
79526;SDS011;68974;47.754;-3.364;2023-09-30T10:10:46;10.68;;;4.43;;
79526;SDS011;68974;47.754;-3.364;2023-09-30T10:24:41;13.85;;;5.63;;
79526;SDS011;68974;47.754;-3.364;2023-09-30T10:29:46;12.23;;;5.05;;
79526;SDS011;68974;47.754;-3.364;2023-09-30T10:32:12;11.18;;;5.10;;
79526;SDS011;68974;47.754;-3.364;2023-09-30T10:34:38;15.32;;;5.63;;
79526;SDS011;68974;47.754;-3.364;2023-09-30T10:37:20;14.07;;;4.90;;
79526;SDS011;68974;47.754;-3.364;2023-09-30T10:42:54;13.10;;;5.93;;
79526;SDS011;68974;47.754;-3.364;2023-09-30T10:45:42;15.05;;;5.40;;
79526;SDS011;68974;47.754;-3.364;2023-09-30T10:50:53;12.60;;;5.93;;
79526;SDS011;68974;47.754;-3.364;2023-09-30T10:53:25;11.60;;;5.22;;
79526;SDS011;68974;47.754;-3.364;2023-09-30T10:56:01;14.60;;;5.95;;
79526;SDS011;68974;47.754;-3.364;2023-09-30T10:58:43;11.48;;;5.38;;
79526;SDS011;68974;47.754;-3.364;2023-09-30T11:01:19;10.95;;;5.45;;
79526;SDS011;68974;47.754;-3.364;2023-09-30T11:03:49;15.32;;;5.50;;
79526;SDS011;68974;47.754;-3.364;2023-09-30T11:06:17;12.93;;;4.70;;
79526;SDS011;68974;47.754;-3.364;2023-09-30T11:11:34;11.00;;;4.93;;
79526;SDS011;68974;47.754;-3.364;2023-09-30T11:16:50;13.98;;;4.63;;
79526;SDS011;68974;47.754;-3.364;2023-09-30T11:19:16;15.38;;;5.70;;
79526;SDS011;68974;47.754;-3.364;2023-09-30T11:21:42;14.48;;;4.65;;
79526;SDS011;68974;47.754;-3.364;2023-09-30T11:24:11;11.73;;;4.45;;
79526;SDS011;68974;47.754;-3.364;2023-09-30T11:26:39;12.82;;;4.90;;
79526;SDS011;68974;47.754;-3.364;2023-09-30T11:29:07;13.20;;;4.93;;
79526;SDS011;68974;47.754;-3.364;2023-09-30T11:31:36;13.85;;;4.72;;
79526;SDS011;68974;47.754;-3.364;2023-09-30T11:34:02;15.93;;;4.75;;
79526;SDS011;68974;47.754;-3.364;2023-09-30T11:36:29;13.18;;;4.88;;
79526;SDS011;68974;47.754;-3.364;2023-09-30T11:38:58;13.35;;;4.78;;
79526;SDS011;68974;47.754;-3.364;2023-09-30T11:41:32;11.25;;;5.10;;
79526;SDS011;68974;47.754;-3.364;2023-09-30T11:43:59;14.05;;;4.65;;
79526;SDS011;68974;47.754;-3.364;2023-09-30T11:49:39;13.15;;;5.20;;
79526;SDS011;68974;47.754;-3.364;2023-09-30T11:52:12;12.30;;;4.40;;
79526;SDS011;68974;47.754;-3.364;2023-09-30T11:54:39;16.58;;;5.38;;
79526;SDS011;68974;47.754;-3.364;2023-09-30T11:57:09;12.70;;;5.05;;
79526;SDS011;68974;47.754;-3.364;2023-09-30T11:59:37;12.25;;;3.95;;
79526;SDS011;68974;47.754;-3.364;2023-09-30T12:02:04;15.18;;;4.85;;
79526;SDS011;68974;47.754;-3.364;2023-09-30T12:07:15;11.07;;;3.60;;
79526;SDS011;68974;47.754;-3.364;2023-09-30T12:09:41;9.73;;;3.85;;
79526;SDS011;68974;47.754;-3.364;2023-09-30T12:12:07;12.98;;;4.25;;
79526;SDS011;68974;47.754;-3.364;2023-09-30T12:14:39;11.75;;;3.72;;
79526;SDS011;68974;47.754;-3.364;2023-09-30T12:17:05;11.95;;;3.70;;
79526;SDS011;68974;47.754;-3.364;2023-09-30T12:19:30;12.23;;;3.63;;
79526;SDS011;68974;47.754;-3.364;2023-09-30T12:21:56;10.90;;;3.75;;
79526;SDS011;68974;47.754;-3.364;2023-09-30T12:24:21;11.00;;;3.75;;
79526;SDS011;68974;47.754;-3.364;2023-09-30T12:26:49;12.15;;;4.03;;
79526;SDS011;68974;47.754;-3.364;2023-09-30T12:29:20;13.23;;;4.10;;
79526;SDS011;68974;47.754;-3.364;2023-09-30T12:31:50;11.18;;;3.53;;
79526;SDS011;68974;47.754;-3.364;2023-09-30T12:34:17;10.40;;;3.78;;
79526;SDS011;68974;47.754;-3.364;2023-09-30T12:36:42;9.32;;;3.45;;
79526;SDS011;68974;47.754;-3.364;2023-09-30T12:39:11;7.72;;;3.72;;
79526;SDS011;68974;47.754;-3.364;2023-09-30T12:41:40;7.55;;;3.33;;
79526;SDS011;68974;47.754;-3.364;2023-09-30T12:44:07;10.35;;;3.33;;
79526;SDS011;68974;47.754;-3.364;2023-09-30T12:46:33;7.03;;;3.03;;
79526;SDS011;68974;47.754;-3.364;2023-09-30T12:49:01;6.43;;;3.00;;
79526;SDS011;68974;47.754;-3.364;2023-09-30T12:51:28;7.95;;;3.40;;
79526;SDS011;68974;47.754;-3.364;2023-09-30T12:53:54;10.68;;;3.58;;
79526;SDS011;68974;47.754;-3.364;2023-09-30T12:56:19;5.82;;;2.85;;
79526;SDS011;68974;47.754;-3.364;2023-09-30T12:58:45;8.48;;;3.58;;
79526;SDS011;68974;47.754;-3.364;2023-09-30T13:01:10;9.70;;;3.90;;
79526;SDS011;68974;47.754;-3.364;2023-09-30T13:03:36;6.82;;;2.65;;
79526;SDS011;68974;47.754;-3.364;2023-09-30T13:06:02;6.38;;;2.78;;
79526;SDS011;68974;47.754;-3.364;2023-09-30T13:08:28;10.45;;;3.22;;
79526;SDS011;68974;47.754;-3.364;2023-09-30T13:10:58;9.27;;;3.60;;
79526;SDS011;68974;47.754;-3.364;2023-09-30T13:13:28;10.02;;;2.83;;
79526;SDS011;68974;47.754;-3.364;2023-09-30T13:15:55;9.85;;;3.08;;
79526;SDS011;68974;47.754;-3.364;2023-09-30T13:18:21;6.25;;;3.75;;
79526;SDS011;68974;47.754;-3.364;2023-09-30T13:20:50;7.57;;;3.42;;
79526;SDS011;68974;47.754;-3.364;2023-09-30T13:23:17;10.02;;;3.67;;
79526;SDS011;68974;47.754;-3.364;2023-09-30T13:25:43;8.05;;;3.45;;
79526;SDS011;68974;47.754;-3.364;2023-09-30T13:28:08;9.38;;;3.70;;
79526;SDS011;68974;47.754;-3.364;2023-09-30T13:30:34;8.60;;;3.38;;
79526;SDS011;68974;47.754;-3.364;2023-09-30T13:33:00;6.47;;;3.03;;
79526;SDS011;68974;47.754;-3.364;2023-09-30T13:35:26;6.45;;;3.55;;
79526;SDS011;68974;47.754;-3.364;2023-09-30T13:37:51;11.32;;;3.67;;
79526;SDS011;68974;47.754;-3.364;2023-09-30T13:40:17;6.43;;;3.13;;
79526;SDS011;68974;47.754;-3.364;2023-09-30T13:42:43;7.03;;;3.22;;
79526;SDS011;68974;47.754;-3.364;2023-09-30T13:45:09;7.65;;;3.78;;
79526;SDS011;68974;47.754;-3.364;2023-09-30T13:47:35;6.63;;;3.10;;
79526;SDS011;68974;47.754;-3.364;2023-09-30T13:50:01;9.65;;;3.97;;
79526;SDS011;68974;47.754;-3.364;2023-09-30T13:52:28;7.43;;;3.22;;
79526;SDS011;68974;47.754;-3.364;2023-09-30T13:54:54;9.80;;;3.25;;
79526;SDS011;68974;47.754;-3.364;2023-09-30T13:57:22;7.63;;;3.35;;
79526;SDS011;68974;47.754;-3.364;2023-09-30T13:59:48;10.13;;;3.92;;
79526;SDS011;68974;47.754;-3.364;2023-09-30T14:02:13;7.70;;;3.85;;
79526;SDS011;68974;47.754;-3.364;2023-09-30T14:04:39;8.20;;;3.45;;
79526;SDS011;68974;47.754;-3.364;2023-09-30T14:07:05;9.15;;;3.08;;
79526;SDS011;68974;47.754;-3.364;2023-09-30T14:09:34;9.02;;;3.78;;
79526;SDS011;68974;47.754;-3.364;2023-09-30T14:12:00;8.63;;;3.38;;
79526;SDS011;68974;47.754;-3.364;2023-09-30T14:14:26;9.00;;;3.25;;
79526;SDS011;68974;47.754;-3.364;2023-09-30T14:16:52;5.32;;;3.22;;
79526;SDS011;68974;47.754;-3.364;2023-09-30T14:19:18;10.80;;;4.00;;
79526;SDS011;68974;47.754;-3.364;2023-09-30T14:21:43;8.20;;;3.40;;
79526;SDS011;68974;47.754;-3.364;2023-09-30T14:24:10;7.28;;;3.20;;
79526;SDS011;68974;47.754;-3.364;2023-09-30T14:26:36;9.38;;;4.68;;
79526;SDS011;68974;47.754;-3.364;2023-09-30T14:29:01;7.70;;;3.53;;
79526;SDS011;68974;47.754;-3.364;2023-09-30T14:31:27;12.85;;;3.70;;
79526;SDS011;68974;47.754;-3.364;2023-09-30T14:33:52;8.88;;;3.42;;
79526;SDS011;68974;47.754;-3.364;2023-09-30T14:36:18;10.55;;;4.63;;
79526;SDS011;68974;47.754;-3.364;2023-09-30T14:38:44;12.65;;;4.78;;
79526;SDS011;68974;47.754;-3.364;2023-09-30T14:41:10;10.75;;;3.90;;
79526;SDS011;68974;47.754;-3.364;2023-09-30T14:43:37;8.45;;;3.97;;
79526;SDS011;68974;47.754;-3.364;2023-09-30T14:46:03;12.07;;;3.90;;
79526;SDS011;68974;47.754;-3.364;2023-09-30T14:48:29;10.50;;;4.22;;
79526;SDS011;68974;47.754;-3.364;2023-09-30T14:50:54;8.77;;;3.83;;
79526;SDS011;68974;47.754;-3.364;2023-09-30T14:53:20;15.07;;;4.28;;
79526;SDS011;68974;47.754;-3.364;2023-09-30T14:55:46;11.88;;;4.20;;
79526;SDS011;68974;47.754;-3.364;2023-09-30T14:58:11;13.15;;;3.85;;
79526;SDS011;68974;47.754;-3.364;2023-09-30T15:00:37;11.15;;;3.90;;
79526;SDS011;68974;47.754;-3.364;2023-09-30T15:03:02;10.68;;;3.55;;
79526;SDS011;68974;47.754;-3.364;2023-09-30T15:05:30;12.10;;;4.03;;
79526;SDS011;68974;47.754;-3.364;2023-09-30T15:07:56;12.35;;;4.30;;
79526;SDS011;68974;47.754;-3.364;2023-09-30T15:10:21;12.13;;;4.20;;
79526;SDS011;68974;47.754;-3.364;2023-09-30T15:12:46;10.75;;;3.83;;
79526;SDS011;68974;47.754;-3.364;2023-09-30T15:15:12;10.57;;;3.90;;
79526;SDS011;68974;47.754;-3.364;2023-09-30T15:17:38;9.77;;;3.88;;